Time;durP1;ratioP1;P1;durP2;ratioP2;P2;SDS_P1;SDS_P2;PMS_P1;PMS_P2;Temp;Humidity;BMP_temperature;BMP_pressure;BME280_temperature;BME280_humidity;BME280_pressure;Samples;Min_cycle;Max_cycle;Signal;HPM_P1;HPM_P2
2023/12/16 00:01:51;;;;;;;;;;;;;;;4.15;100.00;98647.03;5064535;28;20092;-67
2023/12/16 00:04:17;;;;;;;;;;;;;;;4.15;100.00;98662.59;5064774;28;20033;-66
2023/12/16 00:06:43;;;;;;;;;;;;;;;4.13;100.00;98656.72;5064376;28;20019;-71
2023/12/16 00:09:09;;;;;;;;;;;;;;;4.10;100.00;98662.16;5064779;28;19982;-74
2023/12/16 00:11:35;;;;;;;;;;;;;;;4.06;100.00;98671.13;5064678;28;19962;-74
2023/12/16 00:14:00;;;;;;;;;;;;;;;4.04;100.00;98667.84;5064903;28;20194;-74
2023/12/16 00:16:26;;;;;;;;;;;;;;;4.00;100.00;98672.44;5064927;28;20022;-74
2023/12/16 00:18:52;;;;;;;;;;;;;;;3.98;100.00;98681.31;5064215;28;19965;-74
2023/12/16 00:21:18;;;;;;;;;;;;;;;3.92;100.00;98686.97;5064590;28;19958;-74
2023/12/16 00:23:44;;;;;;;;;;;;;;;3.87;100.00;98689.94;5064094;28;20022;-74
2023/12/16 00:26:10;;;;;;;;;;;;;;;3.84;100.00;98693.59;5064337;28;19961;-68
2023/12/16 00:28:35;;;;;;;;;;;;;;;3.80;100.00;98689.59;5063004;28;19963;-67
2023/12/16 00:31:01;;;;;;;;;;;;;;;3.76;100.00;98679.53;5063468;28;20026;-67
2023/12/16 00:33:27;;;;;;;;;;;;;;;3.72;100.00;98678.16;5064307;28;20250;-67
2023/12/16 00:35:53;;;;;;;;;;;;;;;3.70;100.00;98680.06;5064347;28;19954;-67
2023/12/16 00:38:19;;;;;;;;;;;;;;;3.64;100.00;98673.56;5064374;28;19957;-67
2023/12/16 00:40:45;;;;;;;;;;;;;;;3.61;100.00;98676.38;5064353;28;19964;-67
2023/12/16 00:43:11;;;;;;;;;;;;;;;3.56;100.00;98671.53;5064448;28;20005;-73
2023/12/16 00:45:37;;;;;;;;;;;;;;;3.52;100.00;98677.09;5063996;28;19963;-73
2023/12/16 00:48:03;;;;;;;;;;;;;;;3.47;100.00;98674.03;5064317;28;19957;-74
2023/12/16 00:50:28;;;;;;;;;;;;;;;3.43;100.00;98676.03;5063868;28;19993;-73
2023/12/16 00:52:54;;;;;;;;;;;;;;;3.39;100.00;98679.81;5063836;28;19957;-73
2023/12/16 00:55:20;;;;;;;;;;;;;;;3.37;100.00;98684.28;5046357;28;19980;-73
2023/12/16 00:57:46;;;;;;;;;;;;;;;3.33;100.00;98690.66;5063891;28;19957;-73
2023/12/16 01:00:12;;;;;;;;;;;;;;;3.30;100.00;98694.31;5064110;28;19940;-73
2023/12/16 01:02:38;;;;;;;;;;;;;;;3.28;100.00;98696.19;5063890;28;19965;-71
2023/12/16 01:05:04;;;;;;;;;;;;;;;3.26;100.00;98692.88;5063882;28;19956;-74
2023/12/16 01:07:29;;;;;;;;;;;;;;;3.23;100.00;98691.34;5064004;28;20207;-73
2023/12/16 01:09:55;;;;;;;;;;;;;;;3.21;100.00;98697.56;5063976;28;19956;-73
2023/12/16 01:12:21;;;;;;;;;;;;;;;3.19;100.00;98700.31;5063422;28;20251;-73
2023/12/16 01:14:47;;;;;;;;;;;;;;;3.17;100.00;98698.75;5064182;28;19970;-74
2023/12/16 01:17:13;;;;;;;;;;;;;;;3.14;100.00;98697.22;5064170;28;19962;-74
2023/12/16 01:19:39;;;;;;;;;;;;;;;3.11;100.00;98702.66;5063459;28;19961;-71
2023/12/16 01:22:04;;;;;;;;;;;;;;;3.08;100.00;98705.44;5063865;28;19956;-74
2023/12/16 01:24:32;;;;;;;;;;;;;;;3.04;100.00;98707.47;5064043;28;19957;-73
2023/12/16 01:26:58;;;;;;;;;;;;;;;3.00;100.00;98711.22;5063540;28;20062;-73
2023/12/16 01:29:24;;;;;;;;;;;;;;;2.97;100.00;98714.03;5063236;28;19950;-74
2023/12/16 01:31:50;;;;;;;;;;;;;;;2.91;100.00;98713.66;5063617;28;20233;-73
2023/12/16 01:34:16;;;;;;;;;;;;;;;2.88;100.00;98722.50;5063753;28;19958;-73
2023/12/16 01:36:42;;;;;;;;;;;;;;;2.84;100.00;98728.84;5063725;28;19977;-73
2023/12/16 01:39:08;;;;;;;;;;;;;;;2.81;100.00;98732.50;5063783;28;19980;-75
2023/12/16 01:41:34;;;;;;;;;;;;;;;2.76;100.00;98731.97;5063706;28;20138;-70
2023/12/16 01:44:00;;;;;;;;;;;;;;;2.73;100.00;98723.59;5064662;28;19960;-70
2023/12/16 01:46:26;;;;;;;;;;;;;;;2.70;100.00;98718.66;5067381;28;20019;-70
2023/12/16 01:48:52;;;;;;;;;;;;;;;2.67;100.00;98726.63;5067287;28;20039;-70
2023/12/16 01:51:18;;;;;;;;;;;;;;;2.62;100.00;98720.06;5066898;28;19962;-70
2023/12/16 01:53:45;;;;;;;;;;;;;;;2.59;100.00;98722.84;5049518;28;19960;-70
2023/12/16 01:56:11;;;;;;;;;;;;;;;2.55;100.00;98723.19;5066990;28;20150;-75
2023/12/16 01:58:38;;;;;;;;;;;;;;;2.53;100.00;98717.28;5066661;28;19962;-71
2023/12/16 02:01:04;;;;;;;;;;;;;;;2.49;100.00;98706.31;5066980;28;19965;-74
2023/12/16 02:03:30;;;;;;;;;;;;;;;2.47;100.00;98704.78;5066605;28;19962;-73
2023/12/16 02:05:57;;;;;;;;;;;;;;;2.43;100.00;98701.56;5067213;28;19957;-73
2023/12/16 02:08:23;;;;;;;;;;;;;;;2.39;100.00;98705.31;5066858;28;19987;-73
2023/12/16 02:10:48;;;;;;;;;;;;;;;2.36;100.00;98708.16;5066879;28;20170;-73
2023/12/16 02:13:14;;;;;;;;;;;;;;;2.33;100.00;98710.94;5066689;28;19952;-73
2023/12/16 02:15:40;;;;;;;;;;;;;;;2.30;100.00;98714.56;5066877;28;19999;-76
2023/12/16 02:18:06;;;;;;;;;;;;;;;2.29;100.00;98722.44;5066603;28;20007;-67
2023/12/16 02:20:32;;;;;;;;;;;;;;;2.27;100.00;98713.97;5066771;28;19956;-67
2023/12/16 02:22:58;;;;;;;;;;;;;;;2.23;100.00;98703.84;5066309;28;19963;-67
2023/12/16 02:25:24;;;;;;;;;;;;;;;2.23;100.00;98703.03;5066408;28;19955;-67
2023/12/16 02:27:49;;;;;;;;;;;;;;;2.21;100.00;98720.41;5066065;28;19961;-67
2023/12/16 02:30:15;;;;;;;;;;;;;;;2.20;100.00;98718.75;5066329;28;19957;-67
2023/12/16 02:32:41;;;;;;;;;;;;;;;2.17;100.00;98711.22;5066459;28;19959;-74
2023/12/16 02:35:07;;;;;;;;;;;;;;;2.15;100.00;98716.50;5066456;28;20230;-70
2023/12/16 02:37:33;;;;;;;;;;;;;;;2.13;100.00;98731.31;5048849;28;19959;-73
2023/12/16 02:39:59;;;;;;;;;;;;;;;2.12;100.00;98734.00;5066354;28;19956;-73
2023/12/16 02:42:26;;;;;;;;;;;;;;;2.09;100.00;98731.63;5065739;28;19963;-73
2023/12/16 02:44:52;;;;;;;;;;;;;;;2.05;100.00;98736.19;5065957;28;19958;-73
2023/12/16 02:47:18;;;;;;;;;;;;;;;2.03;100.00;98744.06;5065895;28;20168;-73
2023/12/16 02:49:44;;;;;;;;;;;;;;;2.01;100.00;98742.50;5066340;28;19958;-73
2023/12/16 02:52:10;;;;;;;;;;;;;;;1.98;100.00;98753.09;5066139;28;19954;-71
2023/12/16 02:54:36;;;;;;;;;;;;;;;1.96;100.00;98749.78;5065219;28;19963;-73
2023/12/16 02:57:02;;;;;;;;;;;;;;;1.92;100.00;98744.00;5065301;28;20033;-71
2023/12/16 02:59:28;;;;;;;;;;;;;;;1.92;100.00;98738.00;5065942;28;19997;-72
2023/12/16 03:01:54;;;;;;;;;;;;;;;1.91;100.00;98749.25;5066014;28;19956;-72
2023/12/16 03:04:20;;;;;;;;;;;;;;;1.90;100.00;98753.63;5047990;28;19993;-72
2023/12/16 03:06:46;;;;;;;;;;;;;;;1.88;100.00;98759.84;5065344;28;19954;-72
2023/12/16 03:09:12;;;;;;;;;;;;;;;1.86;100.00;98759.94;5047652;28;19968;-73
2023/12/16 03:11:38;;;;;;;;;;;;;;;1.85;100.00;98763.47;5065709;28;20185;-74
2023/12/16 03:14:04;;;;;;;;;;;;;;;1.86;100.00;98767.69;5065901;28;19972;-72
2023/12/16 03:16:31;;;;;;;;;;;;;;;1.86;100.00;98759.13;5065379;28;19959;-72
2023/12/16 03:18:58;;;;;;;;;;;;;;;1.87;100.00;98774.53;5065310;28;19955;-72
2023/12/16 03:21:24;;;;;;;;;;;;;;;1.90;100.00;98781.25;5064871;28;19956;-72
2023/12/16 03:23:50;;;;;;;;;;;;;;;1.91;100.00;98778.56;5065253;28;19977;-72
2023/12/16 03:26:16;;;;;;;;;;;;;;;1.94;100.00;98777.53;5065292;28;19955;-72
2023/12/16 03:28:41;;;;;;;;;;;;;;;1.97;100.00;98779.91;5065302;28;19963;-70
2023/12/16 03:31:07;;;;;;;;;;;;;;;1.99;100.00;98770.25;5065254;28;19957;-71
2023/12/16 03:33:33;;;;;;;;;;;;;;;2.01;100.00;98776.16;5065199;28;20165;-71
2023/12/16 03:35:59;;;;;;;;;;;;;;;2.03;100.00;98774.28;5065455;28;19956;-70
2023/12/16 03:38:25;;;;;;;;;;;;;;;2.03;100.00;98769.94;5065291;28;19954;-70
2023/12/16 03:40:50;;;;;;;;;;;;;;;2.03;100.00;98769.94;5065146;28;19955;-71
2023/12/16 03:43:19;;;;;;;;;;;;;;;2.05;100.00;98767.25;5064576;28;19957;-70
2023/12/16 03:45:45;;;;;;;;;;;;;;;2.06;100.00;98774.09;5064967;28;19957;-71
2023/12/16 03:48:11;;;;;;;;;;;;;;;2.08;100.00;98766.19;5065148;28;19982;-72
2023/12/16 03:50:37;;;;;;;;;;;;;;;2.10;100.00;98770.38;5065228;28;20255;-74
2023/12/16 03:53:03;;;;;;;;;;;;;;;2.13;100.00;98769.31;5064880;28;20246;-73
2023/12/16 03:55:29;;;;;;;;;;;;;;;2.12;100.00;98770.25;5064631;28;19970;-74
2023/12/16 03:57:54;;;;;;;;;;;;;;;2.07;100.00;98767.16;5064733;28;19962;-74
2023/12/16 04:00:20;;;;;;;;;;;;;;;2.00;100.00;98770.16;5065009;28;19968;-73
2023/12/16 04:02:46;;;;;;;;;;;;;;;1.97;100.00;98769.53;5064684;28;19964;-73
2023/12/16 04:05:13;;;;;;;;;;;;;;;1.93;100.00;98770.69;5064801;28;20026;-73
2023/12/16 04:07:39;;;;;;;;;;;;;;;1.84;100.00;98769.56;5064435;28;20237;-70
2023/12/16 04:10:05;;;;;;;;;;;;;;;1.77;100.00;98771.75;5064738;28;19991;-72
2023/12/16 04:12:31;;;;;;;;;;;;;;;1.79;100.00;98771.66;5064977;28;19937;-73
2023/12/16 04:14:57;;;;;;;;;;;;;;;1.78;100.00;98769.97;5064731;28;20237;-72
2023/12/16 04:17:23;;;;;;;;;;;;;;;1.73;100.00;98774.66;5064237;28;20001;-72
2023/12/16 04:19:53;;;;;;;;;;;;;;;1.72;100.00;98773.84;5064224;28;19995;-72
2023/12/16 04:22:19;;;;;;;;;;;;;;;1.73;100.00;98777.25;5064407;28;19959;-72
2023/12/16 04:24:46;;;;;;;;;;;;;;;1.74;100.00;98779.72;5064286;28;20255;-70
2023/12/16 04:27:12;;;;;;;;;;;;;;;1.73;100.00;98772.88;5064327;28;19956;-70
2023/12/16 04:29:37;;;;;;;;;;;;;;;1.74;100.00;98781.47;5064309;28;19948;-71
2023/12/16 04:32:03;;;;;;;;;;;;;;;1.67;100.00;98781.06;5064537;28;20018;-70
2023/12/16 04:34:29;;;;;;;;;;;;;;;1.64;100.00;98789.03;5064404;28;19961;-70
2023/12/16 04:36:55;;;;;;;;;;;;;;;1.63;100.00;98784.78;5064266;28;19968;-69
2023/12/16 04:39:21;;;;;;;;;;;;;;;1.63;100.00;98777.03;5064311;28;19995;-70
2023/12/16 04:41:47;;;;;;;;;;;;;;;1.59;100.00;98788.50;5063867;28;19994;-66
2023/12/16 04:44:12;;;;;;;;;;;;;;;1.58;100.00;98790.28;5064327;28;19972;-77
2023/12/16 04:46:38;;;;;;;;;;;;;;;1.56;100.00;98779.22;5064085;28;19953;-69
2023/12/16 04:49:04;;;;;;;;;;;;;;;1.57;100.00;98782.63;5063432;28;19965;-68
2023/12/16 04:51:30;;;;;;;;;;;;;;;1.57;100.00;98774.84;5063924;28;19972;-68
2023/12/16 04:53:58;;;;;;;;;;;;;;;1.57;100.00;98780.84;5064177;28;20018;-68
2023/12/16 04:56:24;;;;;;;;;;;;;;;1.61;100.00;98771.13;5063851;28;20244;-68
2023/12/16 04:58:50;;;;;;;;;;;;;;;1.61;100.00;98766.78;5064226;28;19962;-69
2023/12/16 05:01:16;;;;;;;;;;;;;;;1.66;100.00;98775.97;5062831;28;19959;-72
2023/12/16 05:03:42;;;;;;;;;;;;;;;1.70;100.00;98778.28;5064018;28;19975;-70
2023/12/16 05:06:08;;;;;;;;;;;;;;;1.72;100.00;98771.25;5064110;28;19957;-70
2023/12/16 05:08:34;;;;;;;;;;;;;;;1.72;100.00;98776.41;5064029;28;20237;-70
2023/12/16 05:11:00;;;;;;;;;;;;;;;1.72;100.00;98781.59;5063558;28;20252;-70
2023/12/16 05:13:26;;;;;;;;;;;;;;;1.74;100.00;98781.47;5063932;28;19960;-69
2023/12/16 05:15:52;;;;;;;;;;;;;;;1.71;100.00;98781.69;5064294;28;19969;-70
2023/12/16 05:18:18;;;;;;;;;;;;;;;1.68;100.00;98790.50;5063912;28;19962;-73
2023/12/16 05:20:44;;;;;;;;;;;;;;;1.64;100.00;98791.63;5067806;28;19988;-66
2023/12/16 05:23:10;;;;;;;;;;;;;;;1.60;100.00;98785.81;5067664;28;19965;-73
2023/12/16 05:25:37;;;;;;;;;;;;;;;1.58;100.00;98792.03;5067981;28;19956;-73
2023/12/16 05:28:03;;;;;;;;;;;;;;;1.58;100.00;98789.44;5068401;28;20145;-73
2023/12/16 05:30:29;;;;;;;;;;;;;;;1.58;100.00;98792.03;5067621;28;19951;-74
2023/12/16 05:32:54;;;;;;;;;;;;;;;1.56;100.00;98793.91;5067816;28;19956;-73
2023/12/16 05:35:21;;;;;;;;;;;;;;;1.54;100.00;98791.41;5067761;28;19964;-73
2023/12/16 05:37:47;;;;;;;;;;;;;;;1.52;100.00;98789.88;5067566;28;19960;-74
2023/12/16 05:40:12;;;;;;;;;;;;;;;1.48;100.00;98789.22;5067410;28;19966;-70
2023/12/16 05:42:40;;;;;;;;;;;;;;;1.50;100.00;98795.13;5067036;28;20001;-70
2023/12/16 05:45:06;;;;;;;;;;;;;;;1.52;100.00;98785.50;5067054;28;19969;-70
2023/12/16 05:47:32;;;;;;;;;;;;;;;1.46;100.00;98788.50;5067507;28;19961;-70
2023/12/16 05:49:58;;;;;;;;;;;;;;;1.42;100.00;98793.03;5067079;28;19956;-70
2023/12/16 05:52:23;;;;;;;;;;;;;;;1.43;100.00;98788.72;5066212;28;19967;-70
2023/12/16 05:54:49;;;;;;;;;;;;;;;1.42;100.00;98795.63;5048824;28;19956;-70
2023/12/16 05:57:15;;;;;;;;;;;;;;;1.41;100.00;98793.16;5067193;28;19956;-73
2023/12/16 05:59:41;;;;;;;;;;;;;;;1.38;100.00;98791.59;5067059;28;19958;-74
2023/12/16 06:02:07;;;;;;;;;;;;;;;1.36;100.00;98803.78;5067189;28;19960;-73
2023/12/16 06:04:32;;;;;;;;;;;;;;;1.32;100.00;98804.91;5067106;28;19962;-73
2023/12/16 06:06:58;;;;;;;;;;;;;;;1.30;100.00;98803.38;5067175;28;20031;-73
2023/12/16 06:09:24;;;;;;;;;;;;;;;1.30;100.00;98801.63;5067034;28;19937;-73
2023/12/16 06:11:50;;;;;;;;;;;;;;;1.29;100.00;98799.16;5067244;28;19946;-74
2023/12/16 06:14:16;;;;;;;;;;;;;;;1.28;100.00;98795.75;5066644;28;19960;-72
2023/12/16 06:16:42;;;;;;;;;;;;;;;1.29;100.00;98796.56;5067268;28;19957;-71
2023/12/16 06:19:08;;;;;;;;;;;;;;;1.33;100.00;98796.25;5066525;28;20023;-70
2023/12/16 06:21:34;;;;;;;;;;;;;;;1.33;100.00;98791.09;5066410;28;19953;-70
2023/12/16 06:24:00;;;;;;;;;;;;;;;1.29;100.00;98794.78;5066466;28;20040;-70
2023/12/16 06:26:26;;;;;;;;;;;;;;;1.30;100.00;98795.63;5066489;28;19985;-70
2023/12/16 06:28:52;;;;;;;;;;;;;;;1.25;100.00;98808.84;5066673;28;19959;-70
2023/12/16 06:31:18;;;;;;;;;;;;;;;1.19;100.00;98799.72;5065882;28;20255;-70
2023/12/16 06:33:45;;;;;;;;;;;;;;;1.18;100.00;98807.63;5066610;28;20133;-73
2023/12/16 06:36:11;;;;;;;;;;;;;;;1.21;100.00;98813.38;5066615;28;19960;-70
2023/12/16 06:38:37;;;;;;;;;;;;;;;1.26;100.00;98812.25;5066475;28;19962;-70
2023/12/16 06:41:05;;;;;;;;;;;;;;;1.24;100.00;98812.38;5065892;28;19947;-70
2023/12/16 06:43:31;;;;;;;;;;;;;;;1.18;100.00;98818.78;5066048;28;20243;-70
2023/12/16 06:45:56;;;;;;;;;;;;;;;1.18;100.00;98821.34;5065995;28;19955;-70
2023/12/16 06:48:22;;;;;;;;;;;;;;;1.18;100.00;98821.34;5065959;28;19978;-70
2023/12/16 06:50:51;;;;;;;;;;;;;;;1.20;100.00;98826.44;5065972;28;20145;-72
2023/12/16 06:53:17;;;;;;;;;;;;;;;1.20;100.00;98824.66;5065999;28;19967;-73
2023/12/16 06:55:43;;;;;;;;;;;;;;;1.18;100.00;98817.94;5066036;28;19957;-74
2023/12/16 06:58:09;;;;;;;;;;;;;;;1.20;100.00;98827.25;5066076;28;19960;-73
2023/12/16 07:00:35;;;;;;;;;;;;;;;1.25;100.00;98821.78;5066003;28;19977;-73
2023/12/16 07:03:02;;;;;;;;;;;;;;;1.30;100.00;98824.06;5065109;28;20353;-73
2023/12/16 07:05:28;;;;;;;;;;;;;;;1.27;100.00;98827.69;5066103;28;20248;-73
2023/12/16 07:07:54;;;;;;;;;;;;;;;1.25;100.00;98821.78;5065848;28;20112;-73
2023/12/16 07:10:20;;;;;;;;;;;;;;;1.23;100.00;98827.97;5066445;28;20207;-70
2023/12/16 07:12:46;;;;;;;;;;;;;;;1.23;100.00;98828.81;5065427;28;20293;-69
2023/12/16 07:15:12;;;;;;;;;;;;;;;1.24;100.00;98829.63;5066007;28;19979;-70
2023/12/16 07:17:40;;;;;;;;;;;;;;;1.29;100.00;98836.16;5065478;28;20013;-69
2023/12/16 07:20:06;;;;;;;;;;;;;;;1.31;100.00;98833.47;5065404;28;19949;-69
2023/12/16 07:22:32;;;;;;;;;;;;;;;1.33;100.00;98839.38;5065362;28;19964;-69
2023/12/16 07:24:58;;;;;;;;;;;;;;;1.30;100.00;98826.63;5065262;28;20122;-69
2023/12/16 07:27:24;;;;;;;;;;;;;;;1.30;100.00;98832.66;5065433;28;19967;-73
2023/12/16 07:29:52;;;;;;;;;;;;;;;1.26;100.00;98838.09;5065480;28;19958;-73
2023/12/16 07:32:18;;;;;;;;;;;;;;;1.25;100.00;98831.28;5065453;28;19962;-69
2023/12/16 07:34:44;;;;;;;;;;;;;;;1.26;100.00;98828.63;5065456;28;19957;-70
2023/12/16 07:37:10;;;;;;;;;;;;;;;1.31;100.00;98844.66;5065369;28;19954;-70
2023/12/16 07:39:36;;;;;;;;;;;;;;;1.34;100.00;98836.69;5065356;28;19939;-70
2023/12/16 07:42:02;;;;;;;;;;;;;;;1.38;100.00;98839.91;5064593;28;19954;-69
2023/12/16 07:44:28;;;;;;;;;;;;;;;1.47;100.00;98843.63;5065149;28;19970;-69
2023/12/16 07:46:54;;;;;;;;;;;;;;;1.53;100.00;98836.28;5064694;28;19959;-66
2023/12/16 07:49:24;;;;;;;;;;;;;;;1.52;100.00;98842.41;5065097;28;19956;-66
2023/12/16 07:51:51;;;;;;;;;;;;;;;1.47;100.00;98843.63;5065225;28;20019;-66
2023/12/16 07:54:17;;;;;;;;;;;;;;;1.48;100.00;98840.94;5064908;28;20138;-66
2023/12/16 07:56:43;;;;;;;;;;;;;;;1.50;100.00;98851.19;5064858;28;19956;-67
2023/12/16 07:59:09;;;;;;;;;;;;;;;1.52;100.00;98849.34;5064997;28;20002;-66
2023/12/16 08:01:34;;;;;;;;;;;;;;;1.55;100.00;98851.72;5064913;28;19954;-66
2023/12/16 08:04:00;;;;;;;;;;;;;;;1.57;100.00;98850.69;5064858;28;20223;-72
2023/12/16 08:06:26;;;;;;;;;;;;;;;1.59;100.00;98848.81;5046658;28;19963;-73
2023/12/16 08:08:53;;;;;;;;;;;;;;;1.63;100.00;98852.84;5064766;28;19957;-76
2023/12/16 08:11:18;;;;;;;;;;;;;;;1.67;100.00;98847.50;5064593;28;19954;-75
2023/12/16 08:13:44;;;;;;;;;;;;;;;1.66;100.00;98851.84;5064799;28;19953;-76
2023/12/16 08:16:11;;;;;;;;;;;;;;;1.67;100.00;98856.06;5064740;28;19960;-76
2023/12/16 08:18:37;;;;;;;;;;;;;;;1.72;100.00;98864.38;5064755;28;19965;-76
2023/12/16 08:21:03;;;;;;;;;;;;;;;1.78;100.00;98871.72;5064246;28;20255;-76
2023/12/16 08:23:29;;;;;;;;;;;;;;;1.85;100.00;98868.72;5064484;28;19961;-73
2023/12/16 08:25:55;;;;;;;;;;;;;;;1.90;100.00;98874.41;5064195;28;19953;-74
2023/12/16 08:28:23;;;;;;;;;;;;;;;1.93;100.00;98869.88;5064525;28;20025;-75
2023/12/16 08:30:50;;;;;;;;;;;;;;;1.93;100.00;98874.19;5064613;28;19956;-74
2023/12/16 08:33:16;;;;;;;;;;;;;;;1.96;100.00;98871.41;5064649;28;20235;-75
2023/12/16 08:35:42;;;;;;;;;;;;;;;1.98;100.00;98879.91;5064472;28;20132;-74
2023/12/16 08:38:08;;;;;;;;;;;;;;;2.03;100.00;98885.59;5064088;28;20125;-74
2023/12/16 08:40:34;;;;;;;;;;;;;;;2.06;100.00;98880.22;5064822;28;19956;-76
2023/12/16 08:43:00;;;;;;;;;;;;;;;2.12;100.00;98884.13;5063605;28;20232;-70
2023/12/16 08:45:26;;;;;;;;;;;;;;;2.17;100.00;98884.66;5063960;28;19972;-66
2023/12/16 08:47:52;;;;;;;;;;;;;;;2.17;100.00;98887.25;5063988;28;19957;-67
2023/12/16 08:50:17;;;;;;;;;;;;;;;2.22;100.00;98895.53;5064262;28;20141;-67
2023/12/16 08:52:43;;;;;;;;;;;;;;;2.25;100.00;98892.75;5065379;28;20016;-67
2023/12/16 08:55:09;;;;;;;;;;;;;;;2.30;100.00;98900.19;5068239;28;19951;-67
2023/12/16 08:57:35;;;;;;;;;;;;;;;2.35;100.00;98898.09;5068481;28;20021;-67
2023/12/16 09:00:01;;;;;;;;;;;;;;;2.37;100.00;98902.28;5068447;28;20112;-71
2023/12/16 09:02:27;;;;;;;;;;;;;;;2.38;100.00;98906.50;5068533;28;19991;-70
2023/12/16 09:04:52;;;;;;;;;;;;;;;2.37;100.00;98910.03;5067758;28;20197;-71
2023/12/16 09:07:19;;;;;;;;;;;;;;;2.39;100.00;98913.34;5067837;28;19939;-71
2023/12/16 09:09:44;;;;;;;;;;;;;;;2.44;100.00;98897.50;5067694;28;19962;-71
2023/12/16 09:12:11;;;;;;;;;;;;;;;2.51;100.00;98903.06;5068085;28;19955;-70
2023/12/16 09:14:37;;;;;;;;;;;;;;;2.53;100.00;98909.78;5067945;28;19981;-71
2023/12/16 09:17:03;;;;;;;;;;;;;;;2.54;100.00;98915.78;5067896;28;19958;-70
2023/12/16 09:19:28;;;;;;;;;;;;;;;2.56;100.00;98911.34;5068046;28;20261;-70
2023/12/16 09:21:54;;;;;;;;;;;;;;;2.55;100.00;98909.69;5067970;28;19957;-71
2023/12/16 09:24:20;;;;;;;;;;;;;;;2.52;100.00;98913.34;5067666;28;19962;-71
2023/12/16 09:26:47;;;;;;;;;;;;;;;2.50;100.00;98920.38;5067739;28;19977;-71
2023/12/16 09:29:13;;;;;;;;;;;;;;;2.50;100.00;98922.13;5067714;28;20152;-71
2023/12/16 09:31:39;;;;;;;;;;;;;;;2.47;100.00;98923.16;5067641;28;19955;-71
2023/12/16 09:34:05;;;;;;;;;;;;;;;2.50;100.00;98915.19;5049273;28;19969;-70
2023/12/16 09:36:31;;;;;;;;;;;;;;;2.54;100.00;98932.19;5067698;28;19952;-76
2023/12/16 09:38:57;;;;;;;;;;;;;;;2.59;100.00;98927.50;5067397;28;19972;-76
2023/12/16 09:41:24;;;;;;;;;;;;;;;2.65;100.00;98936.63;5067861;28;19967;-73
2023/12/16 09:43:51;;;;;;;;;;;;;;;2.71;100.00;98928.44;5067672;28;20267;-74
2023/12/16 09:46:18;;;;;;;;;;;;;;;2.72;100.00;98927.47;5067175;28;19955;-73
2023/12/16 09:48:44;;;;;;;;;;;;;;;2.69;100.00;98927.72;5067209;28;19955;-74
2023/12/16 09:51:10;;;;;;;;;;;;;;;2.70;100.00;98924.16;5067487;28;19961;-73
2023/12/16 09:53:36;;;;;;;;;;;;;;;2.72;100.00;98926.66;5067204;28;19962;-74
2023/12/16 09:56:02;;;;;;;;;;;;;;;2.69;100.00;98922.53;5067161;28;19996;-67
2023/12/16 09:58:30;;;;;;;;;;;;;;;2.73;100.00;98931.75;5067131;28;19998;-66
2023/12/16 10:00:55;;;;;;;;;;;;;;;2.80;100.00;98930.38;5067136;28;20139;-67
2023/12/16 10:03:22;;;;;;;;;;;;;;;2.80;100.00;98921.78;5067276;28;19984;-67
2023/12/16 10:05:49;;;;;;;;;;;;;;;2.81;100.00;98924.28;5065887;28;19958;-67
2023/12/16 10:08:14;;;;;;;;;;;;;;;2.82;100.00;98922.50;5049483;28;19970;-67
2023/12/16 10:10:40;;;;;;;;;;;;;;;2.86;100.00;98918.75;5066443;28;20017;-67
2023/12/16 10:13:06;;;;;;;;;;;;;;;2.93;100.00;98922.56;5066853;28;20017;-69
2023/12/16 10:15:32;;;;;;;;;;;;;;;2.98;100.00;98924.81;5066973;28;19949;-70
2023/12/16 10:18:00;;;;;;;;;;;;;;;3.04;100.00;98919.19;5066592;28;20229;-74
2023/12/16 10:20:26;;;;;;;;;;;;;;;3.11;100.00;98923.03;5066569;28;19960;-74
2023/12/16 10:22:52;;;;;;;;;;;;;;;3.19;100.00;98923.31;5066778;28;19972;-74
2023/12/16 10:25:18;;;;;;;;;;;;;;;3.27;100.00;98922.75;5066767;28;19966;-74
2023/12/16 10:27:44;;;;;;;;;;;;;;;3.31;100.00;98916.41;5066885;28;19966;-74
2023/12/16 10:30:11;;;;;;;;;;;;;;;3.36;100.00;98905.69;5066775;28;20244;-73
2023/12/16 10:32:38;;;;;;;;;;;;;;;3.43;100.00;98907.72;5066788;28;20223;-71
2023/12/16 10:35:05;;;;;;;;;;;;;;;3.49;100.00;98901.28;5065990;28;19943;-73
2023/12/16 10:37:32;;;;;;;;;;;;;;;3.54;100.00;98895.75;5066082;28;19962;-73
2023/12/16 10:39:58;;;;;;;;;;;;;;;3.56;100.00;98896.47;5066112;28;20157;-74
2023/12/16 10:42:24;;;;;;;;;;;;;;;3.57;100.00;98895.50;5066632;28;19956;-72
2023/12/16 10:44:52;;;;;;;;;;;;;;;3.63;100.00;98895.91;5066360;28;19967;-73
2023/12/16 10:47:19;;;;;;;;;;;;;;;3.70;100.00;98893.69;5066154;28;19959;-74
2023/12/16 10:49:45;;;;;;;;;;;;;;;3.75;100.00;98888.13;5066099;28;19957;-70
2023/12/16 10:52:12;;;;;;;;;;;;;;;3.76;100.00;98889.78;5066152;28;19961;-73
2023/12/16 10:54:41;;;;;;;;;;;;;;;3.74;100.00;98882.13;5066061;28;19959;-70
2023/12/16 10:57:22;;;;;;;;;;;;;;;3.76;100.00;98882.84;5066135;28;19956;-70
2023/12/16 10:59:54;;;;;;;;;;;;;;;3.82;100.00;98884.97;5066068;28;19946;-71
2023/12/16 11:02:25;;;;;;;;;;;;;;;3.89;100.00;98871.53;5066285;28;19959;-70
2023/12/16 11:04:56;;;;;;;;;;;;;;;3.98;100.00;98869.06;5065547;28;19969;-70
2023/12/16 11:07:23;;;;;;;;;;;;;;;4.07;100.00;98870.97;5065641;28;19967;-70
2023/12/16 11:09:49;;;;;;;;;;;;;;;4.13;100.00;98859.28;5065671;28;19981;-70
2023/12/16 11:12:16;;;;;;;;;;;;;;;4.19;100.00;98863.19;5065940;28;19957;-73
2023/12/16 11:14:42;;;;;;;;;;;;;;;4.22;100.00;98866.38;5065647;28;19969;-73
2023/12/16 11:17:11;;;;;;;;;;;;;;;4.29;100.00;98863.31;5064577;28;19956;-73
2023/12/16 11:19:41;;;;;;;;;;;;;;;4.38;100.00;98875.59;5065747;28;20156;-73
2023/12/16 11:22:09;;;;;;;;;;;;;;;4.45;100.00;98864.59;5065766;28;19957;-73
2023/12/16 11:24:40;;;;;;;;;;;;;;;4.54;100.00;98863.06;5065073;28;20166;-74
2023/12/16 11:27:06;;;;;;;;;;;;;;;4.63;100.00;98854.53;5065855;28;19954;-71
2023/12/16 11:29:33;;;;;;;;;;;;;;;4.68;100.00;98849.81;5065046;28;19956;-74
2023/12/16 11:32:01;;;;;;;;;;;;;;;4.77;100.00;98839.63;5065822;28;20113;-73
2023/12/16 11:34:48;;;;;;;;;;;;;;;4.84;100.00;98840.78;5065172;28;19960;-73
2023/12/16 11:37:15;;;;;;;;;;;;;;;4.91;100.00;98852.34;5065393;28;20232;-74
2023/12/16 11:39:43;;;;;;;;;;;;;;;4.99;100.00;98846.53;5065334;28;19962;-73
2023/12/16 11:42:18;;;;;;;;;;;;;;;5.04;100.00;98844.38;5065297;28;20235;-74
2023/12/16 11:44:47;;;;;;;;;;;;;;;5.08;100.00;98837.97;5065302;28;19958;-67
2023/12/16 11:47:39;;;;;;;;;;;;;;;5.18;100.00;98851.91;5065068;28;19944;-73
2023/12/16 11:50:05;;;;;;;;;;;;;;;5.37;100.00;98843.41;5060937;28;19960;-71
2023/12/16 11:52:31;;;;;;;;;;;;;;;5.57;100.00;98840.97;5064821;28;19953;-70
2023/12/16 11:54:57;;;;;;;;;;;;;;;5.70;100.00;98839.81;5064828;28;20285;-71
2023/12/16 11:57:24;;;;;;;;;;;;;;;5.85;100.00;98839.50;5064740;28;19954;-69
2023/12/16 11:59:50;;;;;;;;;;;;;;;6.07;100.00;98841.16;5064519;28;19965;-70
2023/12/16 12:02:16;;;;;;;;;;;;;;;6.19;100.00;98829.66;5064872;28;19955;-71
2023/12/16 12:04:42;;;;;;;;;;;;;;;6.34;100.00;98835.38;5064840;28;19965;-73
2023/12/16 12:07:08;;;;;;;;;;;;;;;6.39;100.00;98829.75;5065685;28;19955;-73
2023/12/16 12:09:34;;;;;;;;;;;;;;;6.40;100.00;98828.78;5064700;28;19957;-75
2023/12/16 12:12:01;;;;;;;;;;;;;;;6.38;100.00;98826.31;5064329;28;19959;-73
2023/12/16 12:14:26;;;;;;;;;;;;;;;6.46;100.00;98807.41;5064787;28;19960;-74
2023/12/16 12:16:52;;;;;;;;;;;;;;;6.54;100.00;98798.94;5046841;28;19972;-75
2023/12/16 12:19:18;;;;;;;;;;;;;;;6.52;100.00;98796.44;5064406;28;19955;-74
2023/12/16 12:21:44;;;;;;;;;;;;;;;6.55;100.00;98814.44;5064373;28;19959;-74
2023/12/16 12:24:10;;;;;;;;;;;;;;;6.62;100.00;98814.72;5064281;28;19957;-71
2023/12/16 12:26:36;;;;;;;;;;;;;;;6.70;100.00;98804.47;5064694;28;20013;-75
2023/12/16 12:29:02;;;;;;;;;;;;;;;6.73;100.00;98805.97;5064262;28;20281;-74
2023/12/16 12:31:29;;;;;;;;;;;;;;;6.71;100.00;98786.03;5065185;28;19961;-74
2023/12/16 12:33:54;;;;;;;;;;;;;;;6.68;100.00;98781.09;5064549;28;19959;-75
2023/12/16 12:36:20;;;;;;;;;;;;;;;6.68;100.00;98785.50;5064429;28;20042;-74
2023/12/16 12:38:53;;;;;;;;;;;;;;;6.69;100.00;98755.84;5064234;28;20222;-75
2023/12/16 12:41:19;;;;;;;;;;;;;;;6.67;100.00;98779.44;5064335;28;20250;-74
2023/12/16 12:43:45;;;;;;;;;;;;;;;6.67;100.00;98774.22;5063932;28;19961;-70